createdAt,value
2023-04-18T00:00:50.320Z,75.89
2023-04-18T00:03:21.034Z,75.61
2023-04-18T00:05:49.962Z,75.47
2023-04-18T00:08:18.654Z,75.75
2023-04-18T00:10:47.448Z,75.80
2023-04-18T00:13:18.442Z,76.14
2023-04-18T00:15:47.233Z,76.48
2023-04-18T00:18:17.283Z,76.18
2023-04-18T00:20:46.385Z,76.45
2023-04-18T00:23:15.220Z,76.16
2023-04-18T00:25:44.004Z,76.30
2023-04-18T00:28:12.693Z,76.09
2023-04-18T00:30:41.470Z,76.09
2023-04-18T00:33:10.183Z,76.27
2023-04-18T00:35:38.903Z,76.02
2023-04-18T00:38:07.623Z,76.23
2023-04-18T00:40:36.911Z,76.32
2023-04-18T00:43:07.852Z,76.38
2023-04-18T00:45:37.072Z,76.23
2023-04-18T00:48:05.964Z,75.95
2023-04-18T00:50:37.091Z,76.20
2023-04-18T00:53:06.161Z,76.32
2023-04-18T00:55:35.715Z,76.75
2023-04-18T00:58:04.546Z,76.97
2023-04-18T01:00:33.204Z,77.34
2023-04-18T01:03:02.133Z,77.63
2023-04-18T01:05:31.191Z,77.49
2023-04-18T01:08:01.349Z,77.70
2023-04-18T01:10:31.108Z,77.88
2023-04-18T01:13:11.292Z,78.05
2023-04-18T01:15:41.780Z,78.28
2023-04-18T01:18:11.792Z,78.33
2023-04-18T01:20:45.779Z,78.23
2023-04-18T01:23:16.065Z,78.10
2023-04-18T01:25:46.506Z,77.76
2023-04-18T01:28:15.495Z,78.19
2023-04-18T01:30:44.287Z,77.81
2023-04-18T01:33:13.147Z,78.25
2023-04-18T01:35:41.840Z,78.47
2023-04-18T01:38:10.497Z,78.43
2023-04-18T01:40:39.165Z,78.56
2023-04-18T01:43:07.844Z,78.43
2023-04-18T01:45:36.506Z,78.22
2023-04-18T01:48:05.373Z,78.39
2023-04-18T01:50:34.067Z,78.41
2023-04-18T01:53:02.757Z,78.26
2023-04-18T01:55:31.464Z,78.79
2023-04-18T01:58:00.155Z,78.83
2023-04-18T02:00:28.893Z,79.00
2023-04-18T02:03:00.874Z,78.63
2023-04-18T02:05:29.580Z,78.80
2023-04-18T02:07:59.287Z,79.34
2023-04-18T02:10:28.032Z,79.28
2023-04-18T02:12:56.698Z,79.88
2023-04-18T02:15:25.517Z,79.81
2023-04-18T02:17:54.452Z,80.08
2023-04-18T02:20:23.182Z,79.87
2023-04-18T02:22:52.392Z,79.96
2023-04-18T02:25:23.706Z,79.95
2023-04-18T02:27:53.551Z,80.04
2023-04-18T02:30:23.163Z,80.14
2023-04-18T02:32:58.829Z,80.59
2023-04-18T02:35:27.670Z,80.42
2023-04-18T02:37:56.387Z,80.44
2023-04-18T02:40:25.017Z,80.34
2023-04-18T02:42:53.683Z,80.38
2023-04-18T02:45:22.326Z,80.55
2023-04-18T02:47:55.212Z,81.00
2023-04-18T02:50:25.274Z,81.17
2023-04-18T02:52:54.088Z,80.90
2023-04-18T02:55:22.721Z,80.97
2023-04-18T02:57:51.366Z,80.73
2023-04-18T03:00:20.317Z,81.05
2023-04-18T03:02:49.207Z,81.09
2023-04-18T03:05:18.001Z,81.69
2023-04-18T03:07:46.693Z,81.88
2023-04-18T03:10:15.411Z,81.79
2023-04-18T03:12:44.048Z,81.93
2023-04-18T03:15:12.767Z,81.40
2023-04-18T03:17:41.573Z,81.83
2023-04-18T03:20:10.658Z,81.80
2023-04-18T03:22:39.306Z,81.91
2023-04-18T03:25:08.432Z,82.01
2023-04-18T03:27:37.157Z,82.17
2023-04-18T03:30:06.646Z,81.70
2023-04-18T03:32:36.419Z,81.71
2023-04-18T03:35:05.711Z,81.59
2023-04-18T03:37:34.377Z,81.65
2023-04-18T03:40:05.396Z,82.01
2023-04-18T03:42:34.082Z,82.19
2023-04-18T03:45:02.952Z,82.24
2023-04-18T03:47:32.151Z,82.13
2023-04-18T03:50:00.931Z,81.95
2023-04-18T03:52:29.894Z,82.15
2023-04-18T03:54:58.699Z,81.94
2023-04-18T03:57:27.485Z,81.85
2023-04-18T03:59:56.202Z,82.27
2023-04-18T04:02:24.965Z,82.22
2023-04-18T04:04:54.002Z,81.84
2023-04-18T04:07:22.664Z,81.57
2023-04-18T04:09:51.368Z,81.33
2023-04-18T04:12:20.543Z,81.51
2023-04-18T04:14:49.335Z,81.61
2023-04-18T04:17:17.987Z,81.40
2023-04-18T04:19:46.733Z,81.72
2023-04-18T04:22:15.481Z,81.40
2023-04-18T04:24:44.424Z,81.22
2023-04-18T04:27:13.645Z,80.96
2023-04-18T04:29:43.800Z,80.90
2023-04-18T04:32:12.954Z,80.96
2023-04-18T04:34:41.914Z,80.88
2023-04-18T04:37:10.576Z,81.28
2023-04-18T04:39:39.369Z,81.08
2023-04-18T04:42:09.701Z,80.73
2023-04-18T04:44:38.465Z,80.61
2023-04-18T04:47:07.493Z,80.21
2023-04-18T04:49:36.161Z,80.52
2023-04-18T04:52:04.804Z,80.38
2023-04-18T04:54:33.513Z,80.52
2023-04-18T04:57:02.226Z,80.33
2023-04-18T04:59:31.548Z,79.95
2023-04-18T05:02:00.259Z,79.98
2023-04-18T05:04:29.117Z,79.92
2023-04-18T05:06:57.952Z,80.01
2023-04-18T05:09:26.807Z,80.05
2023-04-18T05:11:55.578Z,79.91
2023-04-18T05:14:25.233Z,80.07
2023-04-18T05:16:55.703Z,80.10
2023-04-18T05:19:24.422Z,79.47
2023-04-18T05:21:53.101Z,79.88
2023-04-18T05:24:21.788Z,79.87
2023-04-18T05:26:50.580Z,80.29
2023-04-18T05:29:19.411Z,81.10
2023-04-18T05:31:48.086Z,81.09
2023-04-18T05:34:16.934Z,81.31
2023-04-18T05:36:47.732Z,81.53
2023-04-18T05:39:17.138Z,81.56
2023-04-18T05:41:45.820Z,82.05
2023-04-18T05:44:16.477Z,81.97
2023-04-18T05:46:45.820Z,82.07
2023-04-18T05:49:14.691Z,82.45
2023-04-18T05:51:43.363Z,82.41
2023-04-18T05:54:12.841Z,82.18
2023-04-18T05:56:41.723Z,82.12
2023-04-18T05:59:10.838Z,82.09
2023-04-18T06:01:39.905Z,82.67
2023-04-18T06:04:08.739Z,82.24
2023-04-18T06:06:37.706Z,82.32
2023-04-18T06:09:06.388Z,82.19
2023-04-18T06:11:35.757Z,81.68
2023-04-18T06:14:04.443Z,81.16
2023-04-18T06:16:33.232Z,81.93
2023-04-18T06:19:03.246Z,81.26
2023-04-18T06:21:32.126Z,81.28
2023-04-18T06:24:01.702Z,80.75
2023-04-18T06:26:32.108Z,80.33
2023-04-18T06:29:01.174Z,80.60
2023-04-18T06:31:29.885Z,79.09
2023-04-18T06:33:58.625Z,79.36
2023-04-18T06:36:27.501Z,79.02
2023-04-18T06:38:56.155Z,78.15
2023-04-18T06:41:24.853Z,77.96
2023-04-18T06:44:03.389Z,77.97
2023-04-18T06:46:33.229Z,77.82
2023-04-18T06:49:02.630Z,77.32
2023-04-18T06:51:31.691Z,77.81
2023-04-18T06:54:00.423Z,78.10
2023-04-18T06:56:29.788Z,78.17
2023-04-18T06:58:58.467Z,77.49
2023-04-18T07:01:27.212Z,77.60
2023-04-18T07:03:56.371Z,77.85
2023-04-18T07:06:26.193Z,77.81
2023-04-18T07:08:59.982Z,77.51
2023-04-18T07:11:29.292Z,77.13
2023-04-18T07:13:57.908Z,76.53
2023-04-18T07:16:26.780Z,76.24
2023-04-18T07:18:55.506Z,75.20
2023-04-18T07:21:24.174Z,74.74
2023-04-18T07:23:52.842Z,74.13
2023-04-18T07:26:21.582Z,75.03
2023-04-18T07:28:50.508Z,74.88
2023-04-18T07:31:19.611Z,74.77
2023-04-18T07:33:48.416Z,73.76
2023-04-18T07:36:18.125Z,73.03
2023-04-18T07:38:47.259Z,73.31
2023-04-18T07:41:15.983Z,73.36
2023-04-18T07:43:44.978Z,73.66
2023-04-18T07:46:14.035Z,74.11
2023-04-18T07:48:42.907Z,73.40
2023-04-18T07:51:11.880Z,72.78
2023-04-18T07:53:41.262Z,72.92
2023-04-18T07:56:12.517Z,73.12
2023-04-18T07:58:41.320Z,72.81
2023-04-18T08:01:13.527Z,72.44
2023-04-18T08:03:42.440Z,72.56
2023-04-18T08:06:11.250Z,72.32
2023-04-18T08:08:39.966Z,72.04
2023-04-18T08:11:08.658Z,71.95
2023-04-18T08:13:37.361Z,71.35
2023-04-18T08:16:06.345Z,71.06
2023-04-18T08:18:35.782Z,71.27
2023-04-18T08:21:04.859Z,71.13
2023-04-18T08:23:33.534Z,70.74
2023-04-18T08:26:02.168Z,70.54
2023-04-18T08:28:30.848Z,70.69
2023-04-18T08:30:59.624Z,70.05
2023-04-18T08:33:29.129Z,69.20
2023-04-18T08:35:57.893Z,68.99
2023-04-18T08:38:26.531Z,69.33
2023-04-18T08:40:55.307Z,68.95
2023-04-18T08:43:25.257Z,68.73
2023-04-18T08:46:00.350Z,68.40
2023-04-18T08:48:29.294Z,67.64
2023-04-18T08:50:59.222Z,67.32
2023-04-18T08:53:28.081Z,67.37
2023-04-18T08:55:59.512Z,66.96
2023-04-18T08:58:32.244Z,66.64
2023-04-18T09:01:01.043Z,66.10
2023-04-18T09:03:41.171Z,66.90
2023-04-18T09:06:16.282Z,66.74
2023-04-18T09:08:59.275Z,66.12
2023-04-18T09:11:30.122Z,66.00
2023-04-18T09:13:59.124Z,65.42
2023-04-18T09:16:28.412Z,65.17
2023-04-18T09:19:18.623Z,65.40
2023-04-18T09:21:58.262Z,65.90
2023-04-18T09:24:30.545Z,65.08
2023-04-18T09:27:00.132Z,65.15
2023-04-18T09:29:47.171Z,64.98
2023-04-18T09:32:25.100Z,64.58
2023-04-18T09:34:58.084Z,64.25
2023-04-18T09:37:28.178Z,64.36
2023-04-18T09:39:56.814Z,64.53
2023-04-18T09:42:28.192Z,64.46
2023-04-18T09:45:08.313Z,64.57
2023-04-18T09:47:37.498Z,64.83
2023-04-18T09:50:08.792Z,64.27
2023-04-18T09:52:40.505Z,64.72
2023-04-18T09:55:11.695Z,63.38
2023-04-18T09:57:44.281Z,63.45
2023-04-18T10:00:20.386Z,63.07
2023-04-18T10:02:53.183Z,62.78
2023-04-18T10:05:30.900Z,62.13
2023-04-18T10:07:59.715Z,61.86
2023-04-18T10:10:28.519Z,61.44
2023-04-18T10:12:59.747Z,61.12
2023-04-18T10:15:30.589Z,61.89
2023-04-18T10:18:11.318Z,61.07
2023-04-18T10:20:41.671Z,61.97
2023-04-18T10:23:37.782Z,62.09
2023-04-18T10:26:12.459Z,62.57
2023-04-18T10:28:58.504Z,62.52
2023-04-18T10:31:29.044Z,61.91
2023-04-18T10:36:31.131Z,61.73
2023-04-18T10:39:20.982Z,62.68
2023-04-18T10:41:51.730Z,62.26
2023-04-18T10:44:23.027Z,61.60
2023-04-18T10:46:52.114Z,62.34
2023-04-18T10:49:30.302Z,62.16
2023-04-18T10:52:02.786Z,61.88
2023-04-18T10:54:50.917Z,62.02
2023-04-18T10:57:20.070Z,62.45
2023-04-18T10:59:50.798Z,62.71
2023-04-18T11:02:32.270Z,63.10
2023-04-18T11:05:04.610Z,63.79
2023-04-18T11:07:34.091Z,63.64
2023-04-18T11:10:07.234Z,62.82
2023-04-18T11:12:38.301Z,62.81
2023-04-18T11:15:21.404Z,63.77
2023-04-18T11:18:04.713Z,63.57
2023-04-18T11:20:45.985Z,63.23
2023-04-18T11:23:21.467Z,62.48
2023-04-18T11:25:56.257Z,62.58
2023-04-18T11:28:25.219Z,62.55
2023-04-18T11:30:58.619Z,62.26
2023-04-18T11:33:28.816Z,61.97
2023-04-18T11:36:00.675Z,62.20
2023-04-18T11:38:30.938Z,62.30
2023-04-18T11:41:02.687Z,62.71
2023-04-18T11:43:31.419Z,63.23
2023-04-18T11:46:00.319Z,62.77
2023-04-18T11:48:36.729Z,61.85
2023-04-18T11:51:06.692Z,62.06
2023-04-18T11:53:36.791Z,62.36
2023-04-18T11:56:06.372Z,63.42
2023-04-18T11:58:36.631Z,62.74
2023-04-18T12:01:22.692Z,62.99
2023-04-18T12:04:06.812Z,62.49
2023-04-18T12:06:53.658Z,62.19
2023-04-18T12:09:25.068Z,61.72
2023-04-18T12:12:01.620Z,62.04
2023-04-18T12:14:30.651Z,61.79
2023-04-18T12:16:59.339Z,61.81
2023-04-18T12:19:30.079Z,61.33
2023-04-18T12:22:05.167Z,61.19
2023-04-18T12:24:34.490Z,61.03
2023-04-18T12:27:03.457Z,61.10
2023-04-18T12:29:32.139Z,60.74
2023-04-18T12:32:00.828Z,60.71
2023-04-18T12:34:29.611Z,60.11
2023-04-18T12:36:58.309Z,60.29
2023-04-18T12:39:27.075Z,60.76
2023-04-18T12:41:55.811Z,60.93
2023-04-18T12:44:24.830Z,60.02
2023-04-18T12:46:53.642Z,60.16
2023-04-18T12:49:22.733Z,59.83
2023-04-18T12:51:51.394Z,60.10
2023-04-18T12:54:20.731Z,60.62
2023-04-18T12:56:49.450Z,60.01
2023-04-18T12:59:18.140Z,60.60
2023-04-18T13:01:46.849Z,61.07
2023-04-18T13:04:16.074Z,60.13
2023-04-18T13:07:20.672Z,59.86
2023-04-18T13:09:49.408Z,59.99
2023-04-18T13:12:18.063Z,60.13
2023-04-18T13:14:46.717Z,60.24
2023-04-18T13:17:15.684Z,60.07
2023-04-18T13:19:44.408Z,59.99
2023-04-18T13:22:13.223Z,60.30
2023-04-18T13:24:41.963Z,59.97
2023-04-18T13:27:10.607Z,59.34
2023-04-18T13:29:41.283Z,60.01
2023-04-18T13:32:10.361Z,60.22
2023-04-18T13:34:42.564Z,59.53
2023-04-18T13:37:11.517Z,58.68
2023-04-18T13:39:40.626Z,58.78
2023-04-18T13:42:10.029Z,59.31
2023-04-18T13:44:38.865Z,58.58
2023-04-18T13:47:08.152Z,57.73
2023-04-18T13:49:37.173Z,57.44
2023-04-18T13:52:05.943Z,56.94
2023-04-18T13:54:34.670Z,56.73
2023-04-18T13:57:03.823Z,55.98
2023-04-18T13:59:32.642Z,55.73
2023-04-18T14:02:01.414Z,55.74
2023-04-18T14:04:31.942Z,54.91
2023-04-18T14:07:01.698Z,54.92
2023-04-18T14:09:30.416Z,55.69
2023-04-18T14:11:59.276Z,55.84
2023-04-18T14:14:28.086Z,55.77
2023-04-18T14:16:57.373Z,56.26
2023-04-18T14:19:27.365Z,56.05
2023-04-18T14:21:56.023Z,55.74
2023-04-18T14:24:24.688Z,55.57
2023-04-18T14:26:53.420Z,56.17
2023-04-18T14:29:22.135Z,56.29
2023-04-18T14:31:50.840Z,56.48
2023-04-18T14:34:19.630Z,55.59
2023-04-18T14:36:48.282Z,55.97
2023-04-18T14:39:16.949Z,56.29
2023-04-18T14:41:45.959Z,56.58
2023-04-18T14:44:14.766Z,57.17
2023-04-18T14:46:43.494Z,56.86
2023-04-18T14:49:12.402Z,57.40
2023-04-18T14:51:41.239Z,57.80
2023-04-18T14:54:09.989Z,57.98
2023-04-18T14:56:38.698Z,58.17
2023-04-18T14:59:07.412Z,58.60
2023-04-18T15:01:36.242Z,58.57
2023-04-18T15:04:05.963Z,59.17
2023-04-18T15:06:35.073Z,59.32
2023-04-18T15:09:03.804Z,58.79
2023-04-18T15:11:32.539Z,59.13
2023-04-18T15:14:01.253Z,59.42
2023-04-18T15:16:31.126Z,59.31
2023-04-18T15:19:00.468Z,59.10
2023-04-18T15:21:29.243Z,59.73
2023-04-18T15:23:59.101Z,59.08
2023-04-18T15:26:27.872Z,58.93
2023-04-18T15:28:56.633Z,58.89
2023-04-18T15:31:26.175Z,58.70
2023-04-18T15:33:55.209Z,58.04
2023-04-18T15:36:24.063Z,57.70
2023-04-18T15:38:52.734Z,57.72
2023-04-18T15:41:21.421Z,57.68
2023-04-18T15:43:52.157Z,57.92
2023-04-18T15:46:20.914Z,58.10
2023-04-18T15:48:49.705Z,58.05
2023-04-18T15:51:18.436Z,57.70
2023-04-18T15:53:47.162Z,57.53
2023-04-18T15:56:15.905Z,57.74
2023-04-18T15:58:44.570Z,57.96
2023-04-18T16:01:16.011Z,57.77
2023-04-18T16:03:44.829Z,57.33
2023-04-18T16:06:15.412Z,57.30
2023-04-18T16:08:44.099Z,57.64
2023-04-18T16:11:12.758Z,57.55
2023-04-18T16:13:41.412Z,58.12
2023-04-18T16:16:10.261Z,57.81
2023-04-18T16:18:39.401Z,58.29
2023-04-18T16:21:08.075Z,58.19
2023-04-18T16:23:37.265Z,58.71
2023-04-18T16:26:06.303Z,58.84
2023-04-18T16:28:37.727Z,58.79
2023-04-18T16:31:06.591Z,59.30
2023-04-18T16:33:35.411Z,59.44
2023-04-18T16:36:05.090Z,59.42
2023-04-18T16:38:33.810Z,59.84
2023-04-18T16:41:02.608Z,59.33
2023-04-18T16:43:31.343Z,58.91
2023-04-18T16:46:00.587Z,59.27
2023-04-18T16:48:29.758Z,58.96
2023-04-18T16:50:58.518Z,59.20
2023-04-18T16:53:27.246Z,60.09
2023-04-18T16:55:56.071Z,60.11
2023-04-18T16:58:24.781Z,60.62
2023-04-18T17:00:53.527Z,60.41
2023-04-18T17:03:22.335Z,60.36
2023-04-18T17:05:51.186Z,60.87
2023-04-18T17:08:19.879Z,60.55
2023-04-18T17:10:52.059Z,61.28
2023-04-18T17:13:26.716Z,61.56
2023-04-18T17:15:55.462Z,62.40
2023-04-18T17:18:24.598Z,62.55
2023-04-18T17:20:53.372Z,62.99
2023-04-18T17:23:22.908Z,62.77
2023-04-18T17:25:51.705Z,62.69
2023-04-18T17:28:21.287Z,63.12
2023-04-18T17:30:50.790Z,63.56
2023-04-18T17:33:19.482Z,63.49
2023-04-18T17:35:48.319Z,63.77
2023-04-18T17:38:16.969Z,64.33
2023-04-18T17:40:46.068Z,64.76
2023-04-18T17:43:14.705Z,64.34
2023-04-18T17:45:44.100Z,64.31
2023-04-18T17:48:12.856Z,64.83
2023-04-18T17:50:41.710Z,64.82
2023-04-18T17:53:12.397Z,64.84
2023-04-18T17:55:41.390Z,65.07
2023-04-18T17:58:10.033Z,65.34
2023-04-18T18:00:38.799Z,65.42
2023-04-18T18:03:13.539Z,66.19
2023-04-18T18:05:46.190Z,66.42
2023-04-18T18:08:15.131Z,66.92
2023-04-18T18:10:46.557Z,67.87
2023-04-18T18:13:15.826Z,68.65
2023-04-18T18:15:44.552Z,69.62
2023-04-18T18:18:13.233Z,68.61
2023-04-18T18:20:43.317Z,68.75
2023-04-18T18:23:12.084Z,67.14
2023-04-18T18:25:41.651Z,66.40
2023-04-18T18:28:10.310Z,66.30
2023-04-18T18:30:38.976Z,65.57
2023-04-18T18:33:07.774Z,64.91
2023-04-18T18:35:36.717Z,64.99
2023-04-18T18:38:05.380Z,64.68
2023-04-18T18:40:34.402Z,64.75
2023-04-18T18:43:03.178Z,64.90
2023-04-18T18:45:31.909Z,65.22
2023-04-18T18:48:00.783Z,64.85
2023-04-18T18:50:29.589Z,64.95
2023-04-18T18:52:58.312Z,64.71
2023-04-18T18:55:27.454Z,64.62
2023-04-18T18:57:56.117Z,64.81
2023-04-18T19:00:25.051Z,65.57
2023-04-18T19:02:53.871Z,65.44
2023-04-18T19:05:22.761Z,65.62
2023-04-18T19:07:51.536Z,65.19
2023-04-18T19:10:21.067Z,65.36
2023-04-18T19:12:49.729Z,65.43
2023-04-18T19:15:18.488Z,65.02
2023-04-18T19:17:47.249Z,64.94
2023-04-18T19:20:15.971Z,64.89
2023-04-18T19:22:44.622Z,64.59
2023-04-18T19:25:13.278Z,64.63
2023-04-18T19:27:42.962Z,64.45
2023-04-18T19:30:12.095Z,64.59
2023-04-18T19:32:40.886Z,64.91
2023-04-18T19:35:13.130Z,64.78
2023-04-18T19:37:42.821Z,64.96
2023-04-18T19:40:11.939Z,65.20
2023-04-18T19:42:41.060Z,65.56
2023-04-18T19:45:12.112Z,65.58
2023-04-18T19:47:43.937Z,65.83
2023-04-18T19:50:12.673Z,65.71
2023-04-18T19:52:41.407Z,65.66
2023-04-18T19:55:10.320Z,65.63
2023-04-18T19:57:41.416Z,65.81
2023-04-18T20:00:12.610Z,65.76
2023-04-18T20:02:41.610Z,65.89
2023-04-18T20:05:10.796Z,65.73
2023-04-18T20:07:39.840Z,66.22
2023-04-18T20:10:09.053Z,66.33
2023-04-18T20:12:37.825Z,66.73
2023-04-18T20:15:07.279Z,67.00
2023-04-18T20:17:36.051Z,67.21
2023-04-18T20:20:08.105Z,67.55
2023-04-18T20:22:37.944Z,67.74
2023-04-18T20:25:07.020Z,67.78
2023-04-18T20:27:35.794Z,68.07
2023-04-18T20:30:05.215Z,67.81
2023-04-18T20:32:34.612Z,67.34
2023-04-18T20:35:04.353Z,67.30
2023-04-18T20:37:36.690Z,67.61
2023-04-18T20:40:10.758Z,67.66
2023-04-18T20:42:39.566Z,68.00
2023-04-18T20:45:11.688Z,68.01
2023-04-18T20:47:42.103Z,68.44
2023-04-18T20:50:11.035Z,68.46
2023-04-18T20:52:42.803Z,68.97
2023-04-18T20:55:11.713Z,69.00
2023-04-18T20:57:40.359Z,68.53
2023-04-18T21:00:10.538Z,68.43
2023-04-18T21:02:41.080Z,68.59
2023-04-18T21:05:10.569Z,68.52
2023-04-18T21:07:39.210Z,68.31
2023-04-18T21:10:08.253Z,68.27
2023-04-18T21:12:36.919Z,68.32
2023-04-18T21:15:06.154Z,68.14
2023-04-18T21:17:34.866Z,68.40
2023-04-18T21:20:03.725Z,68.35
2023-04-18T21:22:32.398Z,68.51
2023-04-18T21:25:01.107Z,68.31
2023-04-18T21:27:30.255Z,68.19
2023-04-18T21:29:58.908Z,68.78
2023-04-18T21:32:27.689Z,68.63
2023-04-18T21:34:57.770Z,68.65
2023-04-18T21:37:26.507Z,68.47
2023-04-18T21:39:55.178Z,68.50
2023-04-18T21:42:23.872Z,68.54
2023-04-18T21:44:54.796Z,68.70
2023-04-18T21:47:23.545Z,68.94
2023-04-18T21:49:52.222Z,69.19
2023-04-18T21:52:21.086Z,69.54
2023-04-18T21:54:49.795Z,69.69
2023-04-18T21:57:18.536Z,70.30
2023-04-18T21:59:47.234Z,70.56
2023-04-18T22:02:16.115Z,70.61
2023-04-18T22:04:44.963Z,70.23
2023-04-18T22:07:15.600Z,70.40
2023-04-18T22:09:45.991Z,69.74
2023-04-18T22:12:15.487Z,67.88
2023-04-18T22:14:48.442Z,65.52
2023-04-18T22:17:17.329Z,65.49
2023-04-18T22:19:47.605Z,65.65
2023-04-18T22:22:16.560Z,65.52
2023-04-18T22:24:47.344Z,64.44
2023-04-18T22:27:16.513Z,65.34
2023-04-18T22:29:45.159Z,66.29
2023-04-18T22:32:13.801Z,66.52
2023-04-18T22:34:42.439Z,67.17
2023-04-18T22:37:11.091Z,68.25
2023-04-18T22:39:39.785Z,68.84
2023-04-18T22:42:08.480Z,69.07
2023-04-18T22:44:37.156Z,68.94
2023-04-18T22:47:06.383Z,68.43
2023-04-18T22:49:35.714Z,67.03
2023-04-18T22:52:05.003Z,66.24
2023-04-18T22:54:38.433Z,66.05
2023-04-18T22:57:07.984Z,64.26
2023-04-18T22:59:36.808Z,60.51
2023-04-18T23:02:05.692Z,59.92
2023-04-18T23:04:34.677Z,58.24
2023-04-18T23:07:03.654Z,57.72
2023-04-18T23:09:33.123Z,57.20
2023-04-18T23:12:04.718Z,57.14
2023-04-18T23:14:34.563Z,57.20
2023-04-18T23:17:03.238Z,57.27
2023-04-18T23:19:31.908Z,56.85
2023-04-18T23:22:00.592Z,56.63
2023-04-18T23:24:30.814Z,56.65
2023-04-18T23:26:59.480Z,56.89
2023-04-18T23:29:29.083Z,56.47
2023-04-18T23:31:57.828Z,56.74
2023-04-18T23:34:26.473Z,57.03
2023-04-18T23:36:55.130Z,56.90
2023-04-18T23:39:26.272Z,56.39
2023-04-18T23:41:54.957Z,55.91
2023-04-18T23:44:23.742Z,56.41
2023-04-18T23:46:52.584Z,56.46
2023-04-18T23:49:21.450Z,57.33
2023-04-18T23:51:50.289Z,57.65
2023-04-18T23:54:18.947Z,58.50
2023-04-18T23:56:47.646Z,60.14
2023-04-18T23:59:16.419Z,60.83
